sensor_id;sensor_type;location;lat;lon;timestamp;P1;durP1;ratioP1;P2;durP2;ratioP2
74100;SDS011;62462;52.530;21.682;2023-03-24T00:01:12;6.32;;;3.65;;
74100;SDS011;62462;52.530;21.682;2023-03-24T00:03:39;6.70;;;3.95;;
74100;SDS011;62462;52.530;21.682;2023-03-24T00:06:05;6.20;;;3.47;;
74100;SDS011;62462;52.530;21.682;2023-03-24T00:08:34;7.35;;;3.53;;
74100;SDS011;62462;52.530;21.682;2023-03-24T00:11:02;7.85;;;3.47;;
74100;SDS011;62462;52.530;21.682;2023-03-24T00:13:30;6.80;;;3.42;;
74100;SDS011;62462;52.530;21.682;2023-03-24T00:16:02;9.00;;;4.30;;
74100;SDS011;62462;52.530;21.682;2023-03-24T00:18:33;6.97;;;3.90;;
74100;SDS011;62462;52.530;21.682;2023-03-24T00:21:01;6.97;;;4.60;;
74100;SDS011;62462;52.530;21.682;2023-03-24T00:23:28;6.25;;;3.35;;
74100;SDS011;62462;52.530;21.682;2023-03-24T00:26:01;7.07;;;3.60;;
74100;SDS011;62462;52.530;21.682;2023-03-24T00:28:30;6.75;;;3.30;;
74100;SDS011;62462;52.530;21.682;2023-03-24T00:30:58;6.38;;;3.40;;
74100;SDS011;62462;52.530;21.682;2023-03-24T00:33:26;6.20;;;3.50;;
74100;SDS011;62462;52.530;21.682;2023-03-24T00:35:57;6.13;;;3.30;;
74100;SDS011;62462;52.530;21.682;2023-03-24T00:38:27;6.50;;;2.97;;
74100;SDS011;62462;52.530;21.682;2023-03-24T00:40:52;5.85;;;3.53;;
74100;SDS011;62462;52.530;21.682;2023-03-24T00:43:19;5.68;;;3.30;;
74100;SDS011;62462;52.530;21.682;2023-03-24T00:45:45;4.78;;;3.00;;
74100;SDS011;62462;52.530;21.682;2023-03-24T00:48:12;5.85;;;3.25;;
74100;SDS011;62462;52.530;21.682;2023-03-24T00:50:43;5.50;;;3.05;;
74100;SDS011;62462;52.530;21.682;2023-03-24T00:53:09;4.95;;;3.03;;
74100;SDS011;62462;52.530;21.682;2023-03-24T00:55:35;5.57;;;3.13;;
74100;SDS011;62462;52.530;21.682;2023-03-24T00:58:02;5.65;;;3.28;;
74100;SDS011;62462;52.530;21.682;2023-03-24T01:00:29;4.80;;;3.38;;
74100;SDS011;62462;52.530;21.682;2023-03-24T01:02:55;5.97;;;3.60;;
74100;SDS011;62462;52.530;21.682;2023-03-24T01:05:23;5.60;;;3.33;;
74100;SDS011;62462;52.530;21.682;2023-03-24T01:07:51;5.88;;;3.78;;
74100;SDS011;62462;52.530;21.682;2023-03-24T01:10:21;5.55;;;3.22;;
74100;SDS011;62462;52.530;21.682;2023-03-24T01:12:51;6.57;;;3.58;;
74100;SDS011;62462;52.530;21.682;2023-03-24T01:15:19;6.25;;;3.60;;
74100;SDS011;62462;52.530;21.682;2023-03-24T01:17:48;4.97;;;3.10;;
74100;SDS011;62462;52.530;21.682;2023-03-24T01:20:17;7.55;;;3.60;;
74100;SDS011;62462;52.530;21.682;2023-03-24T01:22:43;4.82;;;3.40;;
74100;SDS011;62462;52.530;21.682;2023-03-24T01:25:14;6.35;;;3.33;;
74100;SDS011;62462;52.530;21.682;2023-03-24T01:27:42;8.00;;;3.85;;
74100;SDS011;62462;52.530;21.682;2023-03-24T01:30:11;7.25;;;3.65;;
74100;SDS011;62462;52.530;21.682;2023-03-24T01:32:39;5.30;;;3.25;;
74100;SDS011;62462;52.530;21.682;2023-03-24T01:35:05;6.30;;;3.55;;
74100;SDS011;62462;52.530;21.682;2023-03-24T01:37:32;7.05;;;3.72;;
74100;SDS011;62462;52.530;21.682;2023-03-24T01:39:58;8.82;;;3.90;;
74100;SDS011;62462;52.530;21.682;2023-03-24T01:42:24;6.93;;;3.67;;
74100;SDS011;62462;52.530;21.682;2023-03-24T01:44:53;5.57;;;3.58;;
74100;SDS011;62462;52.530;21.682;2023-03-24T01:47:24;4.50;;;3.45;;
74100;SDS011;62462;52.530;21.682;2023-03-24T01:49:51;10.43;;;4.63;;
74100;SDS011;62462;52.530;21.682;2023-03-24T01:52:29;7.10;;;4.05;;
74100;SDS011;62462;52.530;21.682;2023-03-24T01:54:58;4.68;;;3.58;;
74100;SDS011;62462;52.530;21.682;2023-03-24T01:57:37;6.93;;;3.53;;
74100;SDS011;62462;52.530;21.682;2023-03-24T02:00:11;6.05;;;4.35;;
74100;SDS011;62462;52.530;21.682;2023-03-24T02:02:39;9.85;;;4.63;;
74100;SDS011;62462;52.530;21.682;2023-03-24T02:05:10;8.23;;;4.25;;
74100;SDS011;62462;52.530;21.682;2023-03-24T02:07:49;7.90;;;4.45;;
74100;SDS011;62462;52.530;21.682;2023-03-24T02:10:19;6.90;;;4.03;;
74100;SDS011;62462;52.530;21.682;2023-03-24T02:12:46;9.50;;;5.00;;
74100;SDS011;62462;52.530;21.682;2023-03-24T02:15:13;10.02;;;4.43;;
74100;SDS011;62462;52.530;21.682;2023-03-24T02:34:54;25.45;;;11.95;;
74100;SDS011;62462;52.530;21.682;2023-03-24T02:40:43;14.77;;;7.55;;
74100;SDS011;62462;52.530;21.682;2023-03-24T02:46:32;16.48;;;8.13;;
74100;SDS011;62462;52.530;21.682;2023-03-24T02:52:21;17.42;;;8.38;;
74100;SDS011;62462;52.530;21.682;2023-03-24T02:58:39;20.30;;;10.30;;
74100;SDS011;62462;52.530;21.682;2023-03-24T03:01:40;17.83;;;10.00;;
74100;SDS011;62462;52.530;21.682;2023-03-24T03:03:57;17.85;;;9.43;;
74100;SDS011;62462;52.530;21.682;2023-03-24T03:06:27;23.65;;;10.10;;
74100;SDS011;62462;52.530;21.682;2023-03-24T03:08:57;17.98;;;9.65;;
74100;SDS011;62462;52.530;21.682;2023-03-24T03:11:27;18.10;;;8.88;;
74100;SDS011;62462;52.530;21.682;2023-03-24T03:14:00;21.33;;;11.02;;
74100;SDS011;62462;52.530;21.682;2023-03-24T03:16:34;21.10;;;10.15;;
74100;SDS011;62462;52.530;21.682;2023-03-24T03:19:07;17.70;;;9.30;;
74100;SDS011;62462;52.530;21.682;2023-03-24T03:21:39;24.17;;;10.65;;
74100;SDS011;62462;52.530;21.682;2023-03-24T03:24:12;20.92;;;11.02;;
74100;SDS011;62462;52.530;21.682;2023-03-24T03:26:44;17.48;;;9.90;;
74100;SDS011;62462;52.530;21.682;2023-03-24T03:29:15;18.48;;;10.18;;
74100;SDS011;62462;52.530;21.682;2023-03-24T03:31:50;19.30;;;10.10;;
74100;SDS011;62462;52.530;21.682;2023-03-24T03:37:18;14.80;;;8.00;;
74100;SDS011;62462;52.530;21.682;2023-03-24T03:40:21;14.88;;;7.75;;
74100;SDS011;62462;52.530;21.682;2023-03-24T03:42:56;15.20;;;8.70;;
74100;SDS011;62462;52.530;21.682;2023-03-24T03:45:23;10.75;;;6.50;;
74100;SDS011;62462;52.530;21.682;2023-03-24T03:47:48;12.35;;;7.40;;
74100;SDS011;62462;52.530;21.682;2023-03-24T03:50:15;11.18;;;6.45;;
74100;SDS011;62462;52.530;21.682;2023-03-24T03:52:41;12.85;;;6.50;;
74100;SDS011;62462;52.530;21.682;2023-03-24T03:55:09;13.05;;;7.15;;
74100;SDS011;62462;52.530;21.682;2023-03-24T03:57:37;12.30;;;6.63;;
74100;SDS011;62462;52.530;21.682;2023-03-24T04:00:05;12.98;;;7.05;;
74100;SDS011;62462;52.530;21.682;2023-03-24T04:30:00;10.32;;;6.60;;
74100;SDS011;62462;52.530;21.682;2023-03-24T04:32:36;11.82;;;6.75;;
74100;SDS011;62462;52.530;21.682;2023-03-24T04:35:06;12.05;;;6.18;;
74100;SDS011;62462;52.530;21.682;2023-03-24T04:37:44;10.23;;;6.05;;
74100;SDS011;62462;52.530;21.682;2023-03-24T04:40:12;10.98;;;6.30;;
74100;SDS011;62462;52.530;21.682;2023-03-24T04:42:48;11.57;;;6.35;;
74100;SDS011;62462;52.530;21.682;2023-03-24T04:45:16;13.35;;;6.63;;
74100;SDS011;62462;52.530;21.682;2023-03-24T04:47:45;10.18;;;6.03;;
74100;SDS011;62462;52.530;21.682;2023-03-24T04:52:54;8.90;;;5.68;;
74100;SDS011;62462;52.530;21.682;2023-03-24T04:58:05;9.25;;;5.97;;
74100;SDS011;62462;52.530;21.682;2023-03-24T05:00:31;10.18;;;6.13;;
74100;SDS011;62462;52.530;21.682;2023-03-24T05:02:57;10.48;;;6.35;;
74100;SDS011;62462;52.530;21.682;2023-03-24T05:05:24;9.23;;;6.20;;
74100;SDS011;62462;52.530;21.682;2023-03-24T05:07:49;13.35;;;7.82;;
74100;SDS011;62462;52.530;21.682;2023-03-24T05:10:15;10.45;;;6.75;;
74100;SDS011;62462;52.530;21.682;2023-03-24T05:12:42;10.13;;;6.80;;
74100;SDS011;62462;52.530;21.682;2023-03-24T05:15:08;11.52;;;6.68;;
74100;SDS011;62462;52.530;21.682;2023-03-24T05:17:34;15.02;;;8.15;;
74100;SDS011;62462;52.530;21.682;2023-03-24T05:20:00;16.92;;;9.30;;
74100;SDS011;62462;52.530;21.682;2023-03-24T05:22:26;14.82;;;8.95;;
74100;SDS011;62462;52.530;21.682;2023-03-24T05:24:52;20.33;;;10.90;;
74100;SDS011;62462;52.530;21.682;2023-03-24T05:27:18;24.30;;;12.18;;
74100;SDS011;62462;52.530;21.682;2023-03-24T05:29:43;25.58;;;12.80;;
74100;SDS011;62462;52.530;21.682;2023-03-24T05:32:09;23.98;;;12.93;;
74100;SDS011;62462;52.530;21.682;2023-03-24T05:34:37;24.08;;;11.70;;
74100;SDS011;62462;52.530;21.682;2023-03-24T05:37:03;19.45;;;10.05;;
74100;SDS011;62462;52.530;21.682;2023-03-24T05:39:29;15.32;;;8.77;;
74100;SDS011;62462;52.530;21.682;2023-03-24T05:41:55;13.13;;;7.78;;
74100;SDS011;62462;52.530;21.682;2023-03-24T05:44:20;11.63;;;6.95;;
74100;SDS011;62462;52.530;21.682;2023-03-24T05:46:46;12.77;;;6.80;;
74100;SDS011;62462;52.530;21.682;2023-03-24T05:49:12;10.35;;;6.07;;
74100;SDS011;62462;52.530;21.682;2023-03-24T05:51:39;11.38;;;6.55;;
74100;SDS011;62462;52.530;21.682;2023-03-24T05:54:05;20.02;;;10.45;;
74100;SDS011;62462;52.530;21.682;2023-03-24T05:56:31;19.13;;;9.57;;
74100;SDS011;62462;52.530;21.682;2023-03-24T05:58:57;15.40;;;7.85;;
74100;SDS011;62462;52.530;21.682;2023-03-24T06:01:23;13.27;;;7.00;;
74100;SDS011;62462;52.530;21.682;2023-03-24T06:03:50;9.13;;;6.45;;
74100;SDS011;62462;52.530;21.682;2023-03-24T06:06:16;11.60;;;6.70;;
74100;SDS011;62462;52.530;21.682;2023-03-24T06:08:42;12.13;;;7.03;;
74100;SDS011;62462;52.530;21.682;2023-03-24T06:11:11;10.82;;;6.57;;
74100;SDS011;62462;52.530;21.682;2023-03-24T06:13:38;10.75;;;6.22;;
74100;SDS011;62462;52.530;21.682;2023-03-24T06:16:04;9.27;;;5.75;;
74100;SDS011;62462;52.530;21.682;2023-03-24T06:18:30;8.13;;;5.38;;
74100;SDS011;62462;52.530;21.682;2023-03-24T06:20:57;10.30;;;5.38;;
74100;SDS011;62462;52.530;21.682;2023-03-24T06:23:24;8.82;;;5.60;;
74100;SDS011;62462;52.530;21.682;2023-03-24T06:25:52;10.82;;;5.20;;
74100;SDS011;62462;52.530;21.682;2023-03-24T06:28:20;7.88;;;5.00;;
74100;SDS011;62462;52.530;21.682;2023-03-24T06:30:46;10.13;;;5.50;;
74100;SDS011;62462;52.530;21.682;2023-03-24T06:33:13;8.38;;;4.50;;
74100;SDS011;62462;52.530;21.682;2023-03-24T06:35:39;10.38;;;5.20;;
74100;SDS011;62462;52.530;21.682;2023-03-24T06:38:05;9.20;;;5.35;;
74100;SDS011;62462;52.530;21.682;2023-03-24T06:40:32;8.88;;;5.43;;
74100;SDS011;62462;52.530;21.682;2023-03-24T06:42:58;8.30;;;5.40;;
74100;SDS011;62462;52.530;21.682;2023-03-24T06:45:24;11.55;;;5.50;;
74100;SDS011;62462;52.530;21.682;2023-03-24T06:47:51;10.90;;;5.82;;
74100;SDS011;62462;52.530;21.682;2023-03-24T06:50:20;11.95;;;6.10;;
74100;SDS011;62462;52.530;21.682;2023-03-24T06:52:46;10.95;;;6.20;;
74100;SDS011;62462;52.530;21.682;2023-03-24T06:55:12;14.68;;;7.40;;
74100;SDS011;62462;52.530;21.682;2023-03-24T06:57:38;14.43;;;6.90;;
74100;SDS011;62462;52.530;21.682;2023-03-24T07:00:04;15.85;;;7.93;;
74100;SDS011;62462;52.530;21.682;2023-03-24T07:02:32;17.02;;;7.82;;
74100;SDS011;62462;52.530;21.682;2023-03-24T07:05:02;18.35;;;8.25;;
74100;SDS011;62462;52.530;21.682;2023-03-24T07:07:36;16.10;;;7.55;;
74100;SDS011;62462;52.530;21.682;2023-03-24T07:10:03;17.50;;;8.13;;
74100;SDS011;62462;52.530;21.682;2023-03-24T07:12:30;18.00;;;7.82;;
74100;SDS011;62462;52.530;21.682;2023-03-24T07:14:56;13.57;;;6.65;;
74100;SDS011;62462;52.530;21.682;2023-03-24T07:17:22;14.35;;;6.60;;
74100;SDS011;62462;52.530;21.682;2023-03-24T07:19:48;11.07;;;6.18;;
74100;SDS011;62462;52.530;21.682;2023-03-24T07:22:14;11.93;;;5.88;;
74100;SDS011;62462;52.530;21.682;2023-03-24T07:24:40;12.30;;;6.05;;
74100;SDS011;62462;52.530;21.682;2023-03-24T07:27:06;11.43;;;6.13;;
74100;SDS011;62462;52.530;21.682;2023-03-24T07:29:33;10.18;;;5.70;;
74100;SDS011;62462;52.530;21.682;2023-03-24T07:31:59;8.43;;;5.50;;
74100;SDS011;62462;52.530;21.682;2023-03-24T07:34:25;10.65;;;5.53;;
74100;SDS011;62462;52.530;21.682;2023-03-24T07:36:54;11.93;;;6.30;;
74100;SDS011;62462;52.530;21.682;2023-03-24T07:39:20;11.38;;;7.07;;
74100;SDS011;62462;52.530;21.682;2023-03-24T07:41:46;12.07;;;7.15;;
74100;SDS011;62462;52.530;21.682;2023-03-24T07:44:12;13.32;;;6.90;;
74100;SDS011;62462;52.530;21.682;2023-03-24T07:46:38;10.90;;;6.90;;
74100;SDS011;62462;52.530;21.682;2023-03-24T07:49:04;13.38;;;8.02;;
74100;SDS011;62462;52.530;21.682;2023-03-24T07:51:31;16.13;;;8.20;;
74100;SDS011;62462;52.530;21.682;2023-03-24T07:53:57;15.05;;;8.07;;
74100;SDS011;62462;52.530;21.682;2023-03-24T07:56:23;15.07;;;8.30;;
74100;SDS011;62462;52.530;21.682;2023-03-24T07:58:49;14.77;;;7.93;;
74100;SDS011;62462;52.530;21.682;2023-03-24T08:01:15;16.98;;;8.02;;
74100;SDS011;62462;52.530;21.682;2023-03-24T08:03:42;12.18;;;7.47;;
74100;SDS011;62462;52.530;21.682;2023-03-24T08:06:08;13.95;;;7.57;;
74100;SDS011;62462;52.530;21.682;2023-03-24T08:08:34;12.35;;;7.43;;
74100;SDS011;62462;52.530;21.682;2023-03-24T08:11:01;15.90;;;7.55;;
74100;SDS011;62462;52.530;21.682;2023-03-24T08:13:28;14.52;;;8.27;;
74100;SDS011;62462;52.530;21.682;2023-03-24T08:15:54;14.20;;;8.57;;
74100;SDS011;62462;52.530;21.682;2023-03-24T08:18:21;13.82;;;7.57;;
74100;SDS011;62462;52.530;21.682;2023-03-24T08:20:48;15.73;;;8.25;;
74100;SDS011;62462;52.530;21.682;2023-03-24T08:23:18;14.40;;;8.02;;
74100;SDS011;62462;52.530;21.682;2023-03-24T08:25:44;13.43;;;7.93;;
74100;SDS011;62462;52.530;21.682;2023-03-24T08:28:11;13.55;;;8.07;;
74100;SDS011;62462;52.530;21.682;2023-03-24T08:30:37;14.65;;;7.68;;
74100;SDS011;62462;52.530;21.682;2023-03-24T08:33:04;12.98;;;7.55;;
74100;SDS011;62462;52.530;21.682;2023-03-24T08:35:31;15.48;;;7.70;;
74100;SDS011;62462;52.530;21.682;2023-03-24T08:37:58;11.43;;;7.63;;
74100;SDS011;62462;52.530;21.682;2023-03-24T08:40:25;12.10;;;7.25;;
74100;SDS011;62462;52.530;21.682;2023-03-24T08:42:53;12.88;;;7.00;;
74100;SDS011;62462;52.530;21.682;2023-03-24T08:45:22;10.85;;;7.18;;
74100;SDS011;62462;52.530;21.682;2023-03-24T08:47:51;11.70;;;6.43;;
74100;SDS011;62462;52.530;21.682;2023-03-24T08:50:19;13.23;;;7.25;;
74100;SDS011;62462;52.530;21.682;2023-03-24T08:52:46;11.60;;;6.43;;
74100;SDS011;62462;52.530;21.682;2023-03-24T08:55:13;11.13;;;6.30;;
74100;SDS011;62462;52.530;21.682;2023-03-24T08:57:40;12.82;;;6.20;;
74100;SDS011;62462;52.530;21.682;2023-03-24T09:00:07;15.07;;;6.50;;
74100;SDS011;62462;52.530;21.682;2023-03-24T09:02:43;9.73;;;6.17;;
74100;SDS011;62462;52.530;21.682;2023-03-24T09:05:11;10.75;;;6.40;;
74100;SDS011;62462;52.530;21.682;2023-03-24T09:07:37;10.00;;;5.75;;
74100;SDS011;62462;52.530;21.682;2023-03-24T09:10:04;12.88;;;5.70;;
74100;SDS011;62462;52.530;21.682;2023-03-24T09:12:32;13.27;;;7.15;;
74100;SDS011;62462;52.530;21.682;2023-03-24T09:14:57;13.63;;;6.75;;
74100;SDS011;62462;52.530;21.682;2023-03-24T09:17:23;12.82;;;6.43;;
74100;SDS011;62462;52.530;21.682;2023-03-24T09:19:49;11.00;;;6.85;;
74100;SDS011;62462;52.530;21.682;2023-03-24T09:22:15;12.95;;;6.65;;
74100;SDS011;62462;52.530;21.682;2023-03-24T09:24:41;11.50;;;6.75;;
74100;SDS011;62462;52.530;21.682;2023-03-24T09:27:08;11.35;;;7.28;;
74100;SDS011;62462;52.530;21.682;2023-03-24T09:29:34;10.20;;;6.43;;
74100;SDS011;62462;52.530;21.682;2023-03-24T09:32:00;12.40;;;6.57;;
74100;SDS011;62462;52.530;21.682;2023-03-24T09:34:26;9.98;;;6.65;;
74100;SDS011;62462;52.530;21.682;2023-03-24T09:36:52;10.38;;;7.10;;
74100;SDS011;62462;52.530;21.682;2023-03-24T09:39:18;10.30;;;6.30;;
74100;SDS011;62462;52.530;21.682;2023-03-24T09:41:44;11.60;;;6.10;;
74100;SDS011;62462;52.530;21.682;2023-03-24T09:44:17;9.52;;;5.55;;
74100;SDS011;62462;52.530;21.682;2023-03-24T09:46:56;9.35;;;5.80;;
74100;SDS011;62462;52.530;21.682;2023-03-24T09:51:55;10.35;;;5.65;;
74100;SDS011;62462;52.530;21.682;2023-03-24T09:54:30;10.82;;;6.20;;
74100;SDS011;62462;52.530;21.682;2023-03-24T10:00:35;8.50;;;5.53;;
74100;SDS011;62462;52.530;21.682;2023-03-24T10:03:01;9.25;;;5.40;;
74100;SDS011;62462;52.530;21.682;2023-03-24T10:05:53;13.20;;;7.68;;
74100;SDS011;62462;52.530;21.682;2023-03-24T10:08:43;17.42;;;8.13;;
74100;SDS011;62462;52.530;21.682;2023-03-24T10:22:08;10.23;;;5.22;;
74100;SDS011;62462;52.530;21.682;2023-03-24T10:27:40;7.22;;;5.13;;
74100;SDS011;62462;52.530;21.682;2023-03-24T10:30:19;9.70;;;4.88;;
74100;SDS011;62462;52.530;21.682;2023-03-24T10:32:47;9.70;;;5.43;;
74100;SDS011;62462;52.530;21.682;2023-03-24T10:35:18;8.63;;;4.32;;
74100;SDS011;62462;52.530;21.682;2023-03-24T10:37:49;5.90;;;3.92;;
74100;SDS011;62462;52.530;21.682;2023-03-24T10:40:17;6.03;;;4.22;;
74100;SDS011;62462;52.530;21.682;2023-03-24T10:42:46;5.93;;;4.32;;
74100;SDS011;62462;52.530;21.682;2023-03-24T10:45:14;6.32;;;4.13;;
74100;SDS011;62462;52.530;21.682;2023-03-24T10:47:49;5.80;;;3.53;;
74100;SDS011;62462;52.530;21.682;2023-03-24T10:50:17;6.63;;;4.13;;
74100;SDS011;62462;52.530;21.682;2023-03-24T10:52:47;6.57;;;3.60;;
74100;SDS011;62462;52.530;21.682;2023-03-24T10:55:16;6.35;;;3.97;;
74100;SDS011;62462;52.530;21.682;2023-03-24T10:57:47;7.93;;;4.50;;
74100;SDS011;62462;52.530;21.682;2023-03-24T11:00:25;5.18;;;3.92;;
74100;SDS011;62462;52.530;21.682;2023-03-24T11:03:00;6.05;;;3.45;;
74100;SDS011;62462;52.530;21.682;2023-03-24T11:05:34;6.63;;;3.58;;
74100;SDS011;62462;52.530;21.682;2023-03-24T11:10:48;5.93;;;3.88;;
74100;SDS011;62462;52.530;21.682;2023-03-24T11:13:18;5.50;;;3.72;;
74100;SDS011;62462;52.530;21.682;2023-03-24T11:15:52;5.75;;;3.97;;
74100;SDS011;62462;52.530;21.682;2023-03-24T11:18:26;7.63;;;3.85;;
74100;SDS011;62462;52.530;21.682;2023-03-24T11:20:54;6.22;;;3.92;;
74100;SDS011;62462;52.530;21.682;2023-03-24T11:23:31;6.95;;;4.10;;
74100;SDS011;62462;52.530;21.682;2023-03-24T11:26:13;8.82;;;4.70;;
74100;SDS011;62462;52.530;21.682;2023-03-24T11:28:53;7.72;;;4.40;;
74100;SDS011;62462;52.530;21.682;2023-03-24T11:31:26;7.38;;;4.22;;
74100;SDS011;62462;52.530;21.682;2023-03-24T11:34:14;7.43;;;4.25;;
74100;SDS011;62462;52.530;21.682;2023-03-24T11:36:52;6.37;;;4.77;;
74100;SDS011;62462;52.530;21.682;2023-03-24T11:49:32;8.27;;;5.10;;
74100;SDS011;62462;52.530;21.682;2023-03-24T11:52:03;10.20;;;5.28;;
74100;SDS011;62462;52.530;21.682;2023-03-24T11:54:36;11.07;;;6.03;;
74100;SDS011;62462;52.530;21.682;2023-03-24T11:57:03;11.15;;;5.53;;
74100;SDS011;62462;52.530;21.682;2023-03-24T11:59:49;10.63;;;6.00;;
74100;SDS011;62462;52.530;21.682;2023-03-24T12:08:02;8.93;;;5.50;;
74100;SDS011;62462;52.530;21.682;2023-03-24T12:15:55;10.55;;;6.15;;
74100;SDS011;62462;52.530;21.682;2023-03-24T12:23:59;10.77;;;6.00;;
74100;SDS011;62462;52.530;21.682;2023-03-24T12:26:32;9.50;;;5.38;;
74100;SDS011;62462;52.530;21.682;2023-03-24T12:40:37;9.80;;;5.80;;
74100;SDS011;62462;52.530;21.682;2023-03-24T12:45:56;13.90;;;6.63;;
74100;SDS011;62462;52.530;21.682;2023-03-24T12:51:28;9.98;;;6.07;;
74100;SDS011;62462;52.530;21.682;2023-03-24T12:54:35;10.32;;;6.50;;
74100;SDS011;62462;52.530;21.682;2023-03-24T12:56:58;9.52;;;5.68;;
74100;SDS011;62462;52.530;21.682;2023-03-24T13:04:34;10.00;;;5.80;;
74100;SDS011;62462;52.530;21.682;2023-03-24T13:07:07;8.25;;;6.03;;
74100;SDS011;62462;52.530;21.682;2023-03-24T13:12:39;10.25;;;5.90;;
74100;SDS011;62462;52.530;21.682;2023-03-24T13:17:40;9.38;;;5.13;;
74100;SDS011;62462;52.530;21.682;2023-03-24T13:20:50;8.20;;;5.28;;
74100;SDS011;62462;52.530;21.682;2023-03-24T13:23:29;13.20;;;5.38;;
74100;SDS011;62462;52.530;21.682;2023-03-24T13:34:39;8.65;;;4.80;;
74100;SDS011;62462;52.530;21.682;2023-03-24T13:37:22;7.97;;;4.78;;
74100;SDS011;62462;52.530;21.682;2023-03-24T13:39:56;9.95;;;5.03;;
74100;SDS011;62462;52.530;21.682;2023-03-24T13:45:01;7.22;;;4.88;;
74100;SDS011;62462;52.530;21.682;2023-03-24T13:47:46;7.07;;;4.88;;
74100;SDS011;62462;52.530;21.682;2023-03-24T13:52:44;7.38;;;4.63;;
74100;SDS011;62462;52.530;21.682;2023-03-24T13:55:34;8.73;;;4.53;;
74100;SDS011;62462;52.530;21.682;2023-03-24T13:58:05;7.57;;;4.60;;
74100;SDS011;62462;52.530;21.682;2023-03-24T14:03:36;7.90;;;4.90;;
74100;SDS011;62462;52.530;21.682;2023-03-24T14:06:04;6.60;;;4.20;;
74100;SDS011;62462;52.530;21.682;2023-03-24T14:14:03;8.75;;;4.20;;
74100;SDS011;62462;52.530;21.682;2023-03-24T14:19:25;7.68;;;4.32;;
74100;SDS011;62462;52.530;21.682;2023-03-24T14:22:02;6.28;;;4.07;;
74100;SDS011;62462;52.530;21.682;2023-03-24T14:24:28;4.32;;;3.78;;
74100;SDS011;62462;52.530;21.682;2023-03-24T14:26:57;7.68;;;4.10;;
74100;SDS011;62462;52.530;21.682;2023-03-24T14:32:13;5.63;;;3.53;;
74100;SDS011;62462;52.530;21.682;2023-03-24T14:34:49;6.22;;;3.28;;
74100;SDS011;62462;52.530;21.682;2023-03-24T14:37:23;6.93;;;4.00;;
74100;SDS011;62462;52.530;21.682;2023-03-24T14:39:53;4.53;;;3.10;;
74100;SDS011;62462;52.530;21.682;2023-03-24T14:44:57;6.15;;;3.70;;
74100;SDS011;62462;52.530;21.682;2023-03-24T14:47:34;6.40;;;3.60;;
74100;SDS011;62462;52.530;21.682;2023-03-24T14:50:19;4.90;;;3.15;;
74100;SDS011;62462;52.530;21.682;2023-03-24T14:55:15;7.32;;;3.10;;
74100;SDS011;62462;52.530;21.682;2023-03-24T14:57:47;3.75;;;2.75;;
74100;SDS011;62462;52.530;21.682;2023-03-24T15:05:41;5.50;;;3.22;;
74100;SDS011;62462;52.530;21.682;2023-03-24T15:08:19;5.97;;;2.97;;
74100;SDS011;62462;52.530;21.682;2023-03-24T15:10:54;5.18;;;3.00;;
74100;SDS011;62462;52.530;21.682;2023-03-24T15:16:02;6.65;;;2.92;;
74100;SDS011;62462;52.530;21.682;2023-03-24T15:18:31;5.55;;;2.47;;
74100;SDS011;62462;52.530;21.682;2023-03-24T15:20:57;3.28;;;2.50;;
74100;SDS011;62462;52.530;21.682;2023-03-24T15:23:24;3.92;;;2.75;;
74100;SDS011;62462;52.530;21.682;2023-03-24T15:25:52;5.88;;;2.72;;
74100;SDS011;62462;52.530;21.682;2023-03-24T15:28:24;4.63;;;2.45;;
74100;SDS011;62462;52.530;21.682;2023-03-24T15:30:54;5.90;;;2.78;;
74100;SDS011;62462;52.530;21.682;2023-03-24T15:33:23;4.45;;;2.72;;
74100;SDS011;62462;52.530;21.682;2023-03-24T15:35:54;5.88;;;2.28;;
74100;SDS011;62462;52.530;21.682;2023-03-24T15:38:31;4.47;;;2.50;;
74100;SDS011;62462;52.530;21.682;2023-03-24T15:41:04;3.45;;;2.55;;
74100;SDS011;62462;52.530;21.682;2023-03-24T15:43:40;5.95;;;2.92;;
74100;SDS011;62462;52.530;21.682;2023-03-24T15:46:18;5.15;;;3.13;;
74100;SDS011;62462;52.530;21.682;2023-03-24T15:48:45;6.38;;;3.42;;
74100;SDS011;62462;52.530;21.682;2023-03-24T15:51:11;4.43;;;2.90;;
74100;SDS011;62462;52.530;21.682;2023-03-24T15:53:46;5.03;;;2.90;;
74100;SDS011;62462;52.530;21.682;2023-03-24T16:01:35;4.03;;;2.55;;
74100;SDS011;62462;52.530;21.682;2023-03-24T16:04:03;3.78;;;2.20;;
74100;SDS011;62462;52.530;21.682;2023-03-24T16:06:32;4.60;;;2.60;;
74100;SDS011;62462;52.530;21.682;2023-03-24T16:09:06;4.85;;;2.75;;
74100;SDS011;62462;52.530;21.682;2023-03-24T16:11:37;4.35;;;2.85;;
74100;SDS011;62462;52.530;21.682;2023-03-24T16:14:38;6.40;;;3.63;;
74100;SDS011;62462;52.530;21.682;2023-03-24T16:17:00;4.07;;;2.90;;
74100;SDS011;62462;52.530;21.682;2023-03-24T16:19:29;4.57;;;2.78;;
74100;SDS011;62462;52.530;21.682;2023-03-24T16:21:55;8.25;;;3.13;;
74100;SDS011;62462;52.530;21.682;2023-03-24T16:24:22;6.10;;;3.10;;
74100;SDS011;62462;52.530;21.682;2023-03-24T16:26:48;5.85;;;3.08;;
74100;SDS011;62462;52.530;21.682;2023-03-24T16:29:18;5.68;;;3.30;;
74100;SDS011;62462;52.530;21.682;2023-03-24T16:31:47;4.32;;;2.75;;
74100;SDS011;62462;52.530;21.682;2023-03-24T16:34:14;5.63;;;3.00;;
74100;SDS011;62462;52.530;21.682;2023-03-24T16:36:42;6.30;;;3.42;;
74100;SDS011;62462;52.530;21.682;2023-03-24T16:39:14;8.50;;;3.20;;
74100;SDS011;62462;52.530;21.682;2023-03-24T16:41:42;6.00;;;3.47;;
74100;SDS011;62462;52.530;21.682;2023-03-24T16:44:08;5.07;;;3.40;;
74100;SDS011;62462;52.530;21.682;2023-03-24T16:46:35;10.05;;;4.35;;
74100;SDS011;62462;52.530;21.682;2023-03-24T16:49:03;8.55;;;4.70;;
74100;SDS011;62462;52.530;21.682;2023-03-24T16:51:31;7.03;;;4.15;;
74100;SDS011;62462;52.530;21.682;2023-03-24T16:53:57;7.60;;;4.70;;
74100;SDS011;62462;52.530;21.682;2023-03-24T16:56:23;18.95;;;10.55;;
74100;SDS011;62462;52.530;21.682;2023-03-24T16:58:50;20.38;;;11.93;;
74100;SDS011;62462;52.530;21.682;2023-03-24T17:01:18;25.15;;;14.02;;
74100;SDS011;62462;52.530;21.682;2023-03-24T17:06:18;18.90;;;11.38;;
74100;SDS011;62462;52.530;21.682;2023-03-24T17:08:44;12.20;;;6.45;;
74100;SDS011;62462;52.530;21.682;2023-03-24T17:11:10;9.23;;;5.82;;
74100;SDS011;62462;52.530;21.682;2023-03-24T17:13:36;8.80;;;5.20;;
74100;SDS011;62462;52.530;21.682;2023-03-24T17:16:02;23.42;;;10.18;;
74100;SDS011;62462;52.530;21.682;2023-03-24T17:18:30;18.98;;;9.82;;
74100;SDS011;62462;52.530;21.682;2023-03-24T17:20:57;14.27;;;7.13;;
74100;SDS011;62462;52.530;21.682;2023-03-24T17:23:22;7.38;;;4.13;;
74100;SDS011;62462;52.530;21.682;2023-03-24T17:25:48;5.35;;;4.07;;
74100;SDS011;62462;52.530;21.682;2023-03-24T17:28:15;7.60;;;4.20;;
74100;SDS011;62462;52.530;21.682;2023-03-24T17:30:41;6.60;;;3.80;;
74100;SDS011;62462;52.530;21.682;2023-03-24T17:33:13;6.30;;;3.30;;
74100;SDS011;62462;52.530;21.682;2023-03-24T17:35:39;6.93;;;3.47;;
74100;SDS011;62462;52.530;21.682;2023-03-24T17:38:10;4.90;;;3.00;;
74100;SDS011;62462;52.530;21.682;2023-03-24T17:40:38;5.75;;;2.95;;
74100;SDS011;62462;52.530;21.682;2023-03-24T17:43:04;6.53;;;2.90;;
74100;SDS011;62462;52.530;21.682;2023-03-24T17:45:30;3.90;;;2.38;;
74100;SDS011;62462;52.530;21.682;2023-03-24T17:47:56;5.53;;;2.95;;
74100;SDS011;62462;52.530;21.682;2023-03-24T17:50:22;4.50;;;3.20;;
74100;SDS011;62462;52.530;21.682;2023-03-24T17:52:49;5.03;;;3.20;;
74100;SDS011;62462;52.530;21.682;2023-03-24T17:55:15;6.45;;;3.42;;